Time;durP1;ratioP1;P1;durP2;ratioP2;P2;SDS_P1;SDS_P2;PMS_P1;PMS_P2;Temp;Humidity;BMP_temperature;BMP_pressure;BME280_temperature;BME280_humidity;BME280_pressure;Samples;Min_cycle;Max_cycle;Signal;HPM_P1;HPM_P2
2022/03/24 00:00:27;;;;;;;;;;;;;;;5.99;83.18;100323.72;4994057;28;19945;-64
2022/03/24 00:03:11;;;;;;;;;;;;;;;5.92;83.97;100322.81;4977949;28;19944;-64
2022/03/24 00:05:56;;;;;;;;;;;;;;;5.87;84.49;100324.53;4991120;28;19929;-64
2022/03/24 00:08:41;;;;;;;;;;;;;;;5.86;84.46;100314.00;4977563;28;20385;-63
2022/03/24 00:11:25;;;;;;;;;;;;;;;5.83;85.61;100317.50;4990270;28;19947;-64
2022/03/24 00:14:09;;;;;;;;;;;;;;;5.84;85.92;100319.25;4993788;28;20017;-63
2022/03/24 00:16:54;;;;;;;;;;;;;;;5.79;86.66;100320.03;4991234;28;19932;-63
2022/03/24 00:19:39;;;;;;;;;;;;;;;5.73;86.89;100307.72;4977397;28;19960;-63
2022/03/24 00:22:24;;;;;;;;;;;;;;;5.71;86.15;100311.22;4993940;28;19927;-62
2022/03/24 00:25:10;;;;;;;;;;;;;;;5.49;85.48;100264.56;4965227;28;19972;-67
2022/03/24 00:27:55;;;;;;;;;;;;;;;5.66;85.16;100298.00;4993536;28;19933;-63
2022/03/24 00:30:39;;;;;;;;;;;;;;;5.60;86.62;100290.09;4990741;28;19937;-63
2022/03/24 00:33:24;;;;;;;;;;;;;;;5.59;86.38;100292.69;4993364;28;20343;-62
2022/03/24 00:36:09;;;;;;;;;;;;;;;5.57;85.11;100287.41;4991743;28;20582;-64
2022/03/24 00:38:55;;;;;;;;;;;;;;;5.58;84.85;100288.31;4964100;28;20408;-63
2022/03/24 00:41:40;;;;;;;;;;;;;;;5.58;82.90;100283.91;4994557;28;19976;-62
2022/03/24 00:44:26;;;;;;;;;;;;;;;5.58;82.42;100280.41;4949778;28;20033;-63
2022/03/24 00:47:11;;;;;;;;;;;;;;;5.55;82.13;100273.38;4977765;28;19929;-63
2022/03/24 00:49:58;;;;;;;;;;;;;;;5.54;81.50;100270.75;4974898;28;20001;-62
2022/03/24 00:52:43;;;;;;;;;;;;;;;5.50;81.32;100269.81;4991747;28;20396;-63
2022/03/24 00:55:28;;;;;;;;;;;;;;;5.46;80.73;100261.91;4991500;28;19976;-62
2022/03/24 00:58:13;;;;;;;;;;;;;;;5.48;80.76;100258.41;4991218;28;19928;-63
2022/03/24 01:01:02;;;;;;;;;;;;;;;5.47;79.12;100256.66;4991211;28;19932;-63
2022/03/24 01:03:47;;;;;;;;;;;;;;;5.45;80.60;100247.88;4975598;28;19928;-64
2022/03/24 01:06:31;;;;;;;;;;;;;;;5.48;79.91;100250.53;4992545;28;19956;-64
2022/03/24 01:09:15;;;;;;;;;;;;;;;5.51;78.44;100247.03;4990127;28;20397;-62
2022/03/24 01:12:02;;;;;;;;;;;;;;;5.51;78.22;100250.56;4964112;28;19976;-63
2022/03/24 01:14:47;;;;;;;;;;;;;;;5.51;79.06;100249.66;4978897;28;19972;-63
2022/03/24 01:17:31;;;;;;;;;;;;;;;5.53;78.86;100242.69;4976042;28;19944;-68
2022/03/24 01:20:16;;;;;;;;;;;;;;;5.52;79.33;100247.06;4975807;28;19960;-64
2022/03/24 01:23:00;;;;;;;;;;;;;;;5.52;79.53;100238.28;4973787;28;20290;-62
2022/03/24 01:25:45;;;;;;;;;;;;;;;5.52;79.23;100239.16;4990575;28;19968;-63
2022/03/24 01:28:30;;;;;;;;;;;;;;;5.52;79.50;100247.06;4989340;28;19947;-62
2022/03/24 01:31:16;;;;;;;;;;;;;;;5.50;78.85;100238.25;4990634;28;20301;-63
2022/03/24 01:34:02;;;;;;;;;;;;;;;5.50;79.94;100237.41;4948558;28;20037;-63
2022/03/24 01:36:46;;;;;;;;;;;;;;;5.49;79.59;100241.78;4972716;28;20013;-67
2022/03/24 01:39:31;;;;;;;;;;;;;;;5.45;79.89;100231.22;4987813;28;20098;-64
2022/03/24 01:42:18;;;;;;;;;;;;;;;5.42;80.10;100226.81;4971476;28;19933;-65
2022/03/24 01:45:04;;;;;;;;;;;;;;;5.38;80.32;100227.66;4959807;28;19928;-64
2022/03/24 01:47:48;;;;;;;;;;;;;;;5.40;79.96;100230.28;4973254;28;19929;-65
2022/03/24 01:50:36;;;;;;;;;;;;;;;5.40;79.99;100225.94;4974015;28;20040;-65
2022/03/24 01:53:20;;;;;;;;;;;;;;;5.35;80.31;100224.13;4974455;28;19987;-64
2022/03/24 01:56:05;;;;;;;;;;;;;;;5.26;80.54;100222.28;4973474;28;20405;-65
2022/03/24 01:58:51;;;;;;;;;;;;;;;5.20;81.01;100217.00;4975317;28;19928;-63
2022/03/24 02:01:37;;;;;;;;;;;;;;;5.19;81.23;100220.50;4972925;28;19968;-63
2022/03/24 02:04:21;;;;;;;;;;;;;;;5.21;81.54;100223.16;4961193;28;19927;-63
2022/03/24 02:07:06;;;;;;;;;;;;;;;5.21;81.28;100223.16;4977825;28;19991;-63
2022/03/24 02:09:51;;;;;;;;;;;;;;;5.18;80.56;100215.22;4962653;28;19928;-63
2022/03/24 02:12:36;;;;;;;;;;;;;;;5.17;80.06;100216.97;4990081;28;19937;-63
2022/03/24 02:15:21;;;;;;;;;;;;;;;5.18;79.49;100223.97;4945928;28;19971;-66
2022/03/24 02:18:09;;;;;;;;;;;;;;;5.20;78.31;100217.00;4963819;28;19968;-64
2022/03/24 02:20:54;;;;;;;;;;;;;;;5.18;77.35;100216.09;4974412;28;20117;-63
2022/03/24 02:23:40;;;;;;;;;;;;;;;5.19;77.10;100210.00;4976889;28;19928;-63
2022/03/24 02:26:27;;;;;;;;;;;;;;;5.19;77.37;100207.38;4975889;28;19972;-64
2022/03/24 02:29:13;;;;;;;;;;;;;;;5.20;77.64;100206.47;4975951;28;20071;-67
2022/03/24 02:31:58;;;;;;;;;;;;;;;5.14;78.05;100205.56;4975246;28;19928;-63
2022/03/24 02:34:52;;;;;;;;;;;;;;;5.13;77.75;100203.81;4987833;28;19987;-63
2022/03/24 02:37:37;;;;;;;;;;;;;;;5.10;78.47;100196.75;4976128;28;20064;-62
2022/03/24 02:40:22;;;;;;;;;;;;;;;5.10;78.30;100198.50;4991903;28;19929;-64
2022/03/24 02:43:06;;;;;;;;;;;;;;;5.07;78.52;100194.97;4973486;28;20388;-70
2022/03/24 02:45:53;;;;;;;;;;;;;;;5.05;79.51;100195.84;4991777;28;20348;-63
2022/03/24 02:48:39;;;;;;;;;;;;;;;5.07;79.26;100195.84;4962055;28;20020;-65
2022/03/24 02:51:24;;;;;;;;;;;;;;;5.06;79.90;100191.47;4994753;28;19972;-62
2022/03/24 02:54:09;;;;;;;;;;;;;;;5.03;79.62;100191.44;4966867;28;20332;-62
2022/03/24 02:56:54;;;;;;;;;;;;;;;5.00;79.86;100189.66;4992894;28;19937;-64
2022/03/24 02:59:39;;;;;;;;;;;;;;;4.92;79.32;100184.31;4964868;28;20027;-64
2022/03/24 03:02:24;;;;;;;;;;;;;;;4.86;79.48;100193.91;4993060;28;19929;-63
2022/03/24 03:05:08;;;;;;;;;;;;;;;4.69;79.78;100191.13;4978405;28;19976;-63
2022/03/24 03:07:53;;;;;;;;;;;;;;;4.57;80.18;100193.63;4991485;28;19929;-62
2022/03/24 03:10:38;;;;;;;;;;;;;;;4.55;81.39;100190.09;4964455;28;19928;-62
2022/03/24 03:13:22;;;;;;;;;;;;;;;4.60;81.28;100185.75;4993569;28;20329;-63
2022/03/24 03:16:06;;;;;;;;;;;;;;;4.63;81.04;100174.44;4993453;28;19933;-63
2022/03/24 03:18:53;;;;;;;;;;;;;;;4.62;81.73;100183.16;4964505;28;20294;-63
2022/03/24 03:21:40;;;;;;;;;;;;;;;4.60;81.45;100184.91;4963144;28;20293;-65
2022/03/24 03:24:24;;;;;;;;;;;;;;;4.62;81.05;100183.16;4992672;28;19928;-64
2022/03/24 03:27:09;;;;;;;;;;;;;;;4.63;81.35;100182.31;4991096;28;19976;-64
2022/03/24 03:29:53;;;;;;;;;;;;;;;4.62;81.42;100177.91;4993879;28;20299;-63
2022/03/24 03:32:38;;;;;;;;;;;;;;;4.60;82.44;100172.63;4993237;28;19929;-63
2022/03/24 03:35:23;;;;;;;;;;;;;;;4.63;82.28;100177.06;4978529;28;19929;-61
2022/03/24 03:38:10;;;;;;;;;;;;;;;4.64;83.23;100169.16;4981831;28;19928;-63
2022/03/24 03:40:58;;;;;;;;;;;;;;;4.70;82.61;100169.25;4976862;28;20389;-64
2022/03/24 03:43:43;;;;;;;;;;;;;;;4.75;82.42;100172.78;4994565;28;19944;-64
2022/03/24 03:46:28;;;;;;;;;;;;;;;4.77;82.50;100165.81;4976712;28;19929;-64
2022/03/24 03:49:12;;;;;;;;;;;;;;;4.81;82.17;100162.34;4992265;28;20365;-64
2022/03/24 03:51:56;;;;;;;;;;;;;;;4.85;82.35;100173.75;4991732;28;19929;-63
2022/03/24 03:54:43;;;;;;;;;;;;;;;4.86;82.62;100171.16;4992191;28;19928;-67
2022/03/24 03:57:28;;;;;;;;;;;;;;;4.90;82.27;100170.31;4950031;28;19929;-63
2022/03/24 04:03:16;;;;;;;;;;;;;;;4.81;83.91;100167.59;4976197;28;19931;-69
2022/03/24 04:06:01;;;;;;;;;;;;;;;4.80;83.52;100162.34;4976373;28;19944;-63
2022/03/24 04:08:46;;;;;;;;;;;;;;;4.73;84.63;100161.41;4990154;28;19929;-63
2022/03/24 04:11:30;;;;;;;;;;;;;;;4.74;84.15;100159.63;4993206;28;19928;-63
2022/03/24 04:14:15;;;;;;;;;;;;;;;4.79;83.71;100158.81;4990924;28;20413;-63
2022/03/24 04:16:59;;;;;;;;;;;;;;;4.89;82.84;100158.06;4976501;28;19976;-62
2022/03/24 04:19:44;;;;;;;;;;;;;;;4.96;83.62;100159.84;4991597;28;19968;-63
2022/03/24 04:22:28;;;;;;;;;;;;;;;5.02;82.63;100153.75;4991683;28;19927;-67
2022/03/24 04:25:13;;;;;;;;;;;;;;;5.07;82.86;100150.31;4993686;28;19928;-63
2022/03/24 04:27:59;;;;;;;;;;;;;;;5.07;81.47;100152.94;4961519;28;19964;-62
2022/03/24 04:30:43;;;;;;;;;;;;;;;5.12;81.99;100146.81;4977169;28;20440;-63
2022/03/24 04:33:28;;;;;;;;;;;;;;;5.17;80.77;100153.03;4990232;28;19968;-63
2022/03/24 04:36:12;;;;;;;;;;;;;;;5.22;80.97;100149.53;4992819;28;19928;-63
2022/03/24 04:38:57;;;;;;;;;;;;;;;5.25;80.16;100146.06;4995093;28;19931;-61
2022/03/24 04:41:41;;;;;;;;;;;;;;;5.29;80.49;100151.34;4993626;28;19992;-63
2022/03/24 04:44:26;;;;;;;;;;;;;;;5.36;80.28;100152.25;4994314;28;19968;-62
2022/03/24 04:47:10;;;;;;;;;;;;;;;5.42;79.73;100154.94;4989591;28;19929;-65
2022/03/24 04:49:55;;;;;;;;;;;;;;;5.47;79.85;100154.09;4976266;28;20385;-63
2022/03/24 04:52:40;;;;;;;;;;;;;;;5.52;79.61;100146.22;4974083;28;20019;-63
2022/03/24 04:55:24;;;;;;;;;;;;;;;5.58;78.76;100146.28;4990388;28;19971;-62
2022/03/24 04:58:09;;;;;;;;;;;;;;;5.65;78.93;100146.31;4976249;28;19932;-63
2022/03/24 05:00:54;;;;;;;;;;;;;;;5.57;78.43;100132.25;4975462;28;20001;-63
2022/03/24 05:03:39;;;;;;;;;;;;;;;5.78;78.07;100144.63;4992734;28;19929;-63
2022/03/24 05:06:23;;;;;;;;;;;;;;;5.83;79.03;100151.72;4974800;28;19971;-71
2022/03/24 05:09:08;;;;;;;;;;;;;;;5.88;79.36;100149.97;4992424;28;19928;-65
2022/03/24 05:11:52;;;;;;;;;;;;;;;5.94;79.02;100146.50;4988407;28;19972;-63
2022/03/24 05:14:37;;;;;;;;;;;;;;;6.03;78.02;100149.16;4991139;28;19949;-65
2022/03/24 05:17:22;;;;;;;;;;;;;;;6.13;77.00;100146.56;4977256;28;20333;-65
2022/03/24 05:20:10;;;;;;;;;;;;;;;6.19;75.94;100141.34;4975592;28;20285;-64
2022/03/24 05:22:55;;;;;;;;;;;;;;;6.26;75.45;100143.13;4976853;28;20406;-69
2022/03/24 05:25:40;;;;;;;;;;;;;;;6.31;75.65;100140.47;4973721;28;19929;-69
2022/03/24 05:28:25;;;;;;;;;;;;;;;6.38;75.23;100140.53;4975398;28;19988;-63
2022/03/24 05:31:09;;;;;;;;;;;;;;;6.47;75.26;100142.28;4988284;28;19937;-64
2022/03/24 05:33:54;;;;;;;;;;;;;;;6.54;74.58;100141.41;4991221;28;19951;-64
2022/03/24 05:36:39;;;;;;;;;;;;;;;6.61;74.88;100145.84;4975284;28;19932;-63
2022/03/24 05:39:24;;;;;;;;;;;;;;;6.64;74.53;100146.72;4991298;28;19976;-65
2022/03/24 05:42:08;;;;;;;;;;;;;;;6.69;75.30;100152.00;4992492;28;19945;-64
2022/03/24 05:44:53;;;;;;;;;;;;;;;6.67;76.06;100144.09;4973952;28;19953;-68
2022/03/24 05:47:38;;;;;;;;;;;;;;;6.56;76.71;100148.44;4989972;28;19968;-64
2022/03/24 05:50:29;;;;;;;;;;;;;;;6.54;77.27;100146.69;4973855;28;19928;-65
2022/03/24 05:53:29;;;;;;;;;;;;;;;6.34;78.58;100144.03;4972892;28;19928;-65
2022/03/24 05:56:14;;;;;;;;;;;;;;;6.14;82.22;100140.44;4990835;28;20404;-64
2022/03/24 05:58:58;;;;;;;;;;;;;;;6.04;81.98;100145.66;4988127;28;20357;-64
2022/03/24 06:01:44;;;;;;;;;;;;;;;6.03;83.32;100147.41;4990237;28;19987;-63
2022/03/24 06:04:30;;;;;;;;;;;;;;;6.01;84.84;100151.78;4964152;28;19928;-64
2022/03/24 06:07:15;;;;;;;;;;;;;;;6.05;83.46;100145.66;4989598;28;20328;-69
2022/03/24 06:09:59;;;;;;;;;;;;;;;6.15;83.44;100150.09;4991825;28;19929;-64
2022/03/24 06:12:46;;;;;;;;;;;;;;;6.20;82.87;100143.09;4989395;28;19944;-66
2022/03/24 06:15:31;;;;;;;;;;;;;;;6.25;80.27;100148.38;4947887;28;19975;-66
2022/03/24 06:18:16;;;;;;;;;;;;;;;6.14;77.44;100150.97;4988197;28;19980;-65
2022/03/24 06:21:01;;;;;;;;;;;;;;;6.12;76.60;100152.72;4960909;28;20436;-66
2022/03/24 06:23:45;;;;;;;;;;;;;;;6.19;78.10;100150.97;4995798;28;19952;-65
2022/03/24 06:26:29;;;;;;;;;;;;;;;6.28;79.80;100153.63;4981644;28;19928;-73
2022/03/24 06:29:14;;;;;;;;;;;;;;;6.37;80.95;100151.91;4981026;28;20015;-64
2022/03/24 06:31:58;;;;;;;;;;;;;;;6.35;80.13;100155.41;4993706;28;19956;-66
2022/03/24 06:34:43;;;;;;;;;;;;;;;6.39;81.03;100159.81;4997193;28;19928;-64
2022/03/24 06:37:28;;;;;;;;;;;;;;;6.33;82.41;100155.41;4994147;28;19928;-65
2022/03/24 06:40:14;;;;;;;;;;;;;;;6.18;82.89;100154.50;4997177;28;20558;-64
2022/03/24 06:42:59;;;;;;;;;;;;;;;6.22;81.14;100157.16;4983902;28;19928;-64
2022/03/24 06:45:44;;;;;;;;;;;;;;;6.47;81.00;100161.59;4967280;28;19928;-66
2022/03/24 06:48:28;;;;;;;;;;;;;;;6.69;77.49;100158.13;4980849;28;20007;-63
2022/03/24 06:51:13;;;;;;;;;;;;;;;7.02;76.03;100160.81;4993937;28;19952;-66
2022/03/24 06:53:57;;;;;;;;;;;;;;;7.57;72.78;100157.25;4982141;28;20397;-66
2022/03/24 06:56:42;;;;;;;;;;;;;;;8.31;70.45;100165.81;4993187;28;20296;-65
2022/03/24 06:59:26;;;;;;;;;;;;;;;8.98;66.07;100171.59;4981125;28;19992;-64
2022/03/24 07:02:11;;;;;;;;;;;;;;;9.48;61.98;100169.41;4998794;28;19988;-63
2022/03/24 07:04:55;;;;;;;;;;;;;;;9.83;60.56;100166.41;4980802;28;19987;-63
2022/03/24 07:07:40;;;;;;;;;;;;;;;10.48;57.20;100164.75;4983134;28;19984;-67
2022/03/24 07:10:25;;;;;;;;;;;;;;;10.79;54.42;100167.84;4994784;28;20358;-67
2022/03/24 07:13:10;;;;;;;;;;;;;;;11.23;52.31;100168.91;4997319;28;20428;-65
2022/03/24 07:15:54;;;;;;;;;;;;;;;11.70;50.50;100163.69;4978409;28;20027;-65
2022/03/24 07:18:39;;;;;;;;;;;;;;;11.90;48.20;100169.53;4981888;28;19929;-65
2022/03/24 07:21:23;;;;;;;;;;;;;;;11.96;47.26;100181.81;4997796;28;19921;-64
2022/03/24 07:24:08;;;;;;;;;;;;;;;12.29;46.96;100175.81;4996305;28;19928;-64
2022/03/24 07:26:52;;;;;;;;;;;;;;;12.93;45.94;100174.41;4995552;28;20352;-65
2022/03/24 07:29:37;;;;;;;;;;;;;;;13.54;44.10;100177.34;4994662;28;20016;-69
2022/03/24 07:32:21;;;;;;;;;;;;;;;14.53;43.19;100184.44;4995241;28;20452;-64
2022/03/24 07:35:07;;;;;;;;;;;;;;;15.09;41.13;100180.91;4975895;28;20016;-66
2022/03/24 07:37:53;;;;;;;;;;;;;;;15.18;40.53;100187.75;4993825;28;19933;-65
2022/03/24 07:40:37;;;;;;;;;;;;;;;15.08;40.40;100187.19;4979442;28;20096;-65
2022/03/24 07:43:22;;;;;;;;;;;;;;;16.07;38.18;100189.19;4976879;28;19984;-65
2022/03/24 07:46:07;;;;;;;;;;;;;;;16.53;37.10;100185.72;4991763;28;20049;-66
2022/03/24 07:48:51;;;;;;;;;;;;;;;16.85;35.15;100191.59;4976602;28;20369;-68
2022/03/24 07:51:35;;;;;;;;;;;;;;;17.46;31.26;100185.59;4991899;28;19933;-66
2022/03/24 07:54:39;;;;;;;;;;;;;;;18.24;30.60;100183.09;4975179;28;19971;-65
2022/03/24 07:57:24;;;;;;;;;;;;;;;19.43;27.89;100181.06;4991027;28;19928;-68
2022/03/24 08:00:09;;;;;;;;;;;;;;;20.14;27.60;100154.91;4976919;28;19975;-64
2022/03/24 08:02:54;;;;;;;;;;;;;;;20.22;27.87;100176.94;4974290;28;19928;-66
2022/03/24 08:05:39;;;;;;;;;;;;;;;19.09;30.05;100183.59;4963063;28;20300;-64
2022/03/24 08:08:23;;;;;;;;;;;;;;;19.73;26.97;100171.44;4990504;28;20448;-63
2022/03/24 08:11:08;;;;;;;;;;;;;;;20.00;26.92;100181.69;4991544;28;20068;-66
2022/03/24 08:13:54;;;;;;;;;;;;;;;21.23;24.58;100183.03;4991712;28;19928;-65
2022/03/24 08:16:38;;;;;;;;;;;;;;;22.31;25.09;100188.31;4976853;28;20016;-70
2022/03/24 08:19:23;;;;;;;;;;;;;;;22.37;23.45;100180.69;4980570;28;19928;-64
2022/03/24 08:22:08;;;;;;;;;;;;;;;23.81;19.45;100181.25;4984024;28;19942;-65
2022/03/24 08:24:52;;;;;;;;;;;;;;;24.97;19.41;100185.63;4990227;28;19928;-67
2022/03/24 08:27:37;;;;;;;;;;;;;;;25.91;19.64;100193.09;4989158;28;19928;-64
2022/03/24 08:30:22;;;;;;;;;;;;;;;27.29;17.32;100186.63;4991418;28;20408;-64
2022/03/24 08:33:09;;;;;;;;;;;;;;;28.37;16.50;100185.56;4990730;28;19933;-64
2022/03/24 08:35:53;;;;;;;;;;;;;;;28.67;15.74;100186.50;4975760;28;19932;-70
2022/03/24 08:38:38;;;;;;;;;;;;;;;28.88;16.37;100178.28;4992889;28;19948;-64
2022/03/24 08:41:23;;;;;;;;;;;;;;;28.59;16.00;100182.69;4989652;28;19968;-64
2022/03/24 08:44:08;;;;;;;;;;;;;;;29.22;15.15;100182.50;4991308;28;20421;-65
2022/03/24 08:46:52;;;;;;;;;;;;;;;30.02;14.04;100184.13;5001931;28;19929;-65
2022/03/24 08:49:37;;;;;;;;;;;;;;;30.33;13.78;100180.28;4991031;28;19933;-64
2022/03/24 08:52:21;;;;;;;;;;;;;;;30.94;12.91;100187.09;4990640;28;20019;-65
2022/03/24 08:55:07;;;;;;;;;;;;;;;30.54;13.06;100167.28;4976195;28;19972;-71
2022/03/24 08:57:52;;;;;;;;;;;;;;;30.98;12.45;100182.19;4974455;28;19956;-65
2022/03/24 09:00:37;;;;;;;;;;;;;;;31.04;12.76;100182.44;4986273;28;20007;-67
2022/03/24 09:03:22;;;;;;;;;;;;;;;31.52;12.71;100182.25;4993647;28;20436;-65
2022/03/24 09:06:06;;;;;;;;;;;;;;;32.68;11.59;100182.97;4986078;28;20397;-64
2022/03/24 09:08:52;;;;;;;;;;;;;;;30.81;11.94;100185.72;4976672;28;19953;-65
2022/03/24 09:11:36;;;;;;;;;;;;;;;30.30;12.26;100163.28;4961805;28;20404;-66
2022/03/24 09:14:21;;;;;;;;;;;;;;;28.72;14.52;100167.00;4990931;28;20008;-70
2022/03/24 09:17:06;;;;;;;;;;;;;;;27.13;15.53;100157.00;4991078;28;20449;-66
2022/03/24 09:19:51;;;;;;;;;;;;;;;26.76;14.11;100165.56;4973558;28;20060;-64
2022/03/24 09:22:39;;;;;;;;;;;;;;;27.61;13.70;100161.16;4975511;28;19929;-64
2022/03/24 09:25:24;;;;;;;;;;;;;;;29.38;14.11;100171.91;4975009;28;20679;-65
2022/03/24 09:28:10;;;;;;;;;;;;;;;28.61;14.12;100175.25;4962960;28;19927;-65
2022/03/24 09:30:57;;;;;;;;;;;;;;;27.86;14.18;100157.28;4963776;28;19948;-65
2022/03/24 09:33:41;;;;;;;;;;;;;;;27.95;13.17;100164.66;4960453;28;19928;-67
2022/03/24 09:36:26;;;;;;;;;;;;;;;28.82;13.47;100167.91;4989570;28;19928;-66
2022/03/24 09:39:11;;;;;;;;;;;;;;;28.22;13.89;100168.66;4987969;28;19928;-65
2022/03/24 09:41:57;;;;;;;;;;;;;;;27.19;13.83;100161.09;4976442;28;19932;-65
2022/03/24 09:44:42;;;;;;;;;;;;;;;27.87;14.22;100159.00;4989389;28;19928;-65
2022/03/24 09:47:26;;;;;;;;;;;;;;;27.06;14.46;100160.38;4989713;28;19933;-65
2022/03/24 09:50:12;;;;;;;;;;;;;;;26.96;14.04;100156.66;4974895;28;19929;-65
2022/03/24 09:52:59;;;;;;;;;;;;;;;26.69;14.24;100150.72;4959685;28;19944;-68
2022/03/24 09:55:43;;;;;;;;;;;;;;;27.96;13.46;100150.91;4988530;28;19975;-63
2022/03/24 09:58:27;;;;;;;;;;;;;;;28.22;13.90;100152.28;4987804;28;19929;-64
2022/03/24 10:01:13;;;;;;;;;;;;;;;27.31;13.67;100154.69;4988849;28;19976;-64
2022/03/24 10:04:02;;;;;;;;;;;;;;;27.99;13.50;100149.78;4975527;28;20049;-63
2022/03/24 10:06:59;;;;;;;;;;;;;;;26.94;12.51;100147.75;4989867;28;19940;-70
2022/03/24 10:09:44;;;;;;;;;;;;;;;28.41;13.20;100152.47;4989496;28;19928;-65
2022/03/24 10:12:31;;;;;;;;;;;;;;;28.70;12.47;100152.59;4988914;28;19944;-65
2022/03/24 10:15:16;;;;;;;;;;;;;;;27.57;12.01;100161.56;4990224;28;19929;-64
2022/03/24 10:18:00;;;;;;;;;;;;;;;27.92;12.42;100156.78;4976302;28;19928;-65
2022/03/24 10:20:45;;;;;;;;;;;;;;;26.47;12.46;100135.22;4987955;28;19968;-74
2022/03/24 10:23:35;;;;;;;;;;;;;;;25.50;13.22;100154.59;4989735;28;19928;-65
2022/03/24 10:26:20;;;;;;;;;;;;;;;26.33;12.33;100156.34;4973809;28;20393;-62
2022/03/24 10:29:05;;;;;;;;;;;;;;;27.68;11.88;100156.94;4990362;28;19929;-65
2022/03/24 10:31:53;;;;;;;;;;;;;;;27.22;12.39;100153.59;4991708;28;20289;-65
2022/03/24 10:34:38;;;;;;;;;;;;;;;27.46;12.75;100142.50;4972706;28;19971;-69
2022/03/24 10:37:25;;;;;;;;;;;;;;;29.08;11.38;100150.09;4975985;28;19968;-64
2022/03/24 10:40:10;;;;;;;;;;;;;;;30.25;11.30;100158.22;4987115;28;19944;-65
2022/03/24 10:42:59;;;;;;;;;;;;;;;29.16;11.99;100153.84;4973967;28;19971;-64
2022/03/24 10:45:44;;;;;;;;;;;;;;;29.03;11.45;100152.38;4960532;28;19928;-64
2022/03/24 10:48:28;;;;;;;;;;;;;;;30.88;10.50;100157.56;4974121;28;19928;-70
2022/03/24 10:51:26;;;;;;;;;;;;;;;29.52;11.34;100155.13;4974244;28;19929;-64
2022/03/24 10:54:14;;;;;;;;;;;;;;;28.53;11.91;100153.25;4991376;28;19948;-65
2022/03/24 10:57:12;;;;;;;;;;;;;;;28.02;13.03;100149.53;4974073;28;20033;-64
2022/03/24 10:59:58;;;;;;;;;;;;;;;27.61;12.86;100150.25;4988600;28;19928;-64
2022/03/24 11:02:44;;;;;;;;;;;;;;;27.74;12.41;100152.84;4942044;28;19988;-65
2022/03/24 11:05:28;;;;;;;;;;;;;;;26.86;12.17;100151.09;4988931;28;19928;-64
2022/03/24 11:08:17;;;;;;;;;;;;;;;27.41;12.85;100144.75;4988467;28;19932;-63
2022/03/24 11:11:06;;;;;;;;;;;;;;;25.83;13.54;100152.06;4974887;28;20290;-73
2022/03/24 11:13:53;;;;;;;;;;;;;;;25.11;13.19;100149.34;4962250;28;19944;-63
2022/03/24 11:16:39;;;;;;;;;;;;;;;25.27;13.88;100145.41;4978768;28;19929;-64
2022/03/24 11:19:24;;;;;;;;;;;;;;;24.43;14.09;100151.59;4962727;28;20012;-64
2022/03/24 11:22:12;;;;;;;;;;;;;;;24.44;13.57;100152.47;4978824;28;19929;-64
2022/03/24 11:24:57;;;;;;;;;;;;;;;23.53;14.26;100151.59;4960351;28;19933;-64
2022/03/24 11:27:43;;;;;;;;;;;;;;;23.04;14.20;100142.19;4977329;28;20332;-65
2022/03/24 11:30:28;;;;;;;;;;;;;;;23.45;13.87;100141.25;4989744;28;19972;-63
2022/03/24 11:33:13;;;;;;;;;;;;;;;23.78;14.02;100143.53;4990259;28;19948;-66
2022/03/24 11:35:58;;;;;;;;;;;;;;;23.00;14.68;100140.66;4975714;28;19929;-66
2022/03/24 11:38:43;;;;;;;;;;;;;;;22.90;14.28;100129.56;4976618;28;20075;-68
2022/03/24 11:41:30;;;;;;;;;;;;;;;21.55;15.29;100130.75;4977497;28;20079;-66
2022/03/24 11:44:20;;;;;;;;;;;;;;;20.89;15.63;100125.66;4947153;28;20025;-67
2022/03/24 11:47:15;;;;;;;;;;;;;;;20.70;15.78;100120.44;4977394;28;20012;-66
2022/03/24 11:50:07;;;;;;;;;;;;;;;20.96;15.81;100125.25;4977740;28;19971;-66
2022/03/24 11:53:07;;;;;;;;;;;;;;;21.51;15.36;100126.50;4988614;28;20079;-66
2022/03/24 11:56:01;;;;;;;;;;;;;;;20.83;15.67;100121.47;4989796;28;19933;-70
2022/03/24 11:59:08;;;;;;;;;;;;;;;22.13;15.02;100122.75;4976866;28;20001;-66
2022/03/24 12:02:11;;;;;;;;;;;;;;;20.87;15.21;100124.84;4989508;28;19929;-65
2022/03/24 12:04:58;;;;;;;;;;;;;;;20.15;15.86;100112.72;4987560;28;20373;-64
2022/03/24 12:07:43;;;;;;;;;;;;;;;20.65;15.02;100113.53;4960141;28;19932;-64
2022/03/24 12:10:31;;;;;;;;;;;;;;;20.74;15.27;100123.81;4989339;28;19928;-66
2022/03/24 12:13:15;;;;;;;;;;;;;;;19.89;16.08;100116.75;4975211;28;19920;-65
2022/03/24 12:16:10;;;;;;;;;;;;;;;19.79;16.12;100120.88;4991673;28;19967;-65
2022/03/24 12:18:56;;;;;;;;;;;;;;;19.12;16.57;100121.63;4963893;28;19920;-64
2022/03/24 12:21:40;;;;;;;;;;;;;;;19.05;16.91;100117.47;4987912;28;20059;-66
2022/03/24 12:24:24;;;;;;;;;;;;;;;18.88;16.72;100115.63;4991613;28;20023;-66
2022/03/24 12:27:14;;;;;;;;;;;;;;;19.25;16.57;100115.59;4989637;28;20009;-65
2022/03/24 12:30:16;;;;;;;;;;;;;;;18.97;16.66;100116.97;4975282;28;19929;-64
2022/03/24 12:33:04;;;;;;;;;;;;;;;18.85;16.62;100118.47;4989956;28;19992;-64
2022/03/24 12:35:53;;;;;;;;;;;;;;;18.97;17.03;100109.81;4977600;28;19975;-66
2022/03/24 12:38:37;;;;;;;;;;;;;;;19.62;16.51;100112.78;4990041;28;19924;-72
2022/03/24 12:41:23;;;;;;;;;;;;;;;20.17;16.12;100105.44;4974655;28;19959;-65
2022/03/24 12:44:08;;;;;;;;;;;;;;;20.17;15.93;100111.69;4988146;28;19972;-67
2022/03/24 12:46:58;;;;;;;;;;;;;;;19.65;16.39;100107.25;4976581;28;19984;-63
2022/03/24 12:49:42;;;;;;;;;;;;;;;19.71;16.55;100103.38;4974726;28;20289;-64
2022/03/24 12:52:46;;;;;;;;;;;;;;;19.17;16.46;100109.69;4994637;28;20416;-65
2022/03/24 12:55:34;;;;;;;;;;;;;;;18.57;17.07;100103.72;4990803;28;19952;-64
2022/03/24 12:58:19;;;;;;;;;;;;;;;17.83;17.73;100107.09;4978379;28;20024;-66
2022/03/24 13:01:04;;;;;;;;;;;;;;;17.25;18.11;100106.00;4990205;28;20313;-72
2022/03/24 13:03:59;;;;;;;;;;;;;;;17.44;18.28;100111.50;4935511;28;19921;-65
2022/03/24 13:06:43;;;;;;;;;;;;;;;17.93;18.09;100105.75;4989599;28;19967;-65
2022/03/24 13:09:27;;;;;;;;;;;;;;;17.79;17.73;100109.06;4990527;28;20456;-64
2022/03/24 13:12:12;;;;;;;;;;;;;;;17.33;18.36;100106.56;4989507;28;20337;-65
2022/03/24 13:14:57;;;;;;;;;;;;;;;17.16;18.62;100100.13;4988292;28;19940;-69
2022/03/24 13:17:42;;;;;;;;;;;;;;;17.28;18.46;100105.88;4990890;28;19960;-64
2022/03/24 13:20:28;;;;;;;;;;;;;;;17.15;18.90;100098.41;4988935;28;19983;-64
2022/03/24 13:23:14;;;;;;;;;;;;;;;17.21;18.96;100099.03;4975804;28;20341;-64
2022/03/24 13:26:03;;;;;;;;;;;;;;;16.69;19.10;100093.19;4974581;28;19924;-64
2022/03/24 13:28:53;;;;;;;;;;;;;;;17.06;18.83;100099.66;4976425;28;19924;-64
2022/03/24 13:31:38;;;;;;;;;;;;;;;17.13;18.90;100092.25;4991897;28;19943;-64
2022/03/24 13:34:25;;;;;;;;;;;;;;;16.92;19.00;100093.09;4986926;28;19920;-65
2022/03/24 13:37:15;;;;;;;;;;;;;;;17.05;19.10;100094.38;4965921;28;19920;-65
2022/03/24 13:40:00;;;;;;;;;;;;;;;17.31;18.92;100096.81;4977730;28;19920;-64
2022/03/24 13:42:45;;;;;;;;;;;;;;;16.91;19.22;100097.59;4989907;28;19920;-67
2022/03/24 13:45:30;;;;;;;;;;;;;;;16.83;19.58;100093.50;4977375;28;20305;-64
2022/03/24 13:48:15;;;;;;;;;;;;;;;17.46;19.05;100098.91;4959679;28;20013;-65
2022/03/24 13:51:05;;;;;;;;;;;;;;;17.77;18.70;100097.50;4947724;28;20036;-67
2022/03/24 13:53:50;;;;;;;;;;;;;;;17.14;19.13;100097.53;4978136;28;20332;-63
2022/03/24 13:56:34;;;;;;;;;;;;;;;16.60;19.54;100102.44;4989284;28;20003;-64
2022/03/24 13:59:32;;;;;;;;;;;;;;;16.47;19.52;100098.50;4988488;28;20325;-65
2022/03/24 14:02:21;;;;;;;;;;;;;;;16.45;19.51;100096.78;4972998;28;20322;-63
2022/03/24 14:05:09;;;;;;;;;;;;;;;16.19;20.04;100092.41;4960881;28;19940;-64
2022/03/24 14:08:00;;;;;;;;;;;;;;;15.64;20.47;100092.66;4971338;28;20044;-63
2022/03/24 14:10:49;;;;;;;;;;;;;;;15.87;20.34;100089.16;4979054;28;19920;-65
2022/03/24 14:13:38;;;;;;;;;;;;;;;15.48;20.73;100093.25;4979475;28;19925;-66
2022/03/24 14:16:25;;;;;;;;;;;;;;;15.30;20.80;100088.47;4979995;28;19936;-64
2022/03/24 14:19:15;;;;;;;;;;;;;;;14.95;20.56;100048.75;4974354;28;19986;-71